sensor_id;sensor_type;location;lat;lon;timestamp;temperature;humidity
76936;DHT22;65881;52.438;16.744;2024-03-08T00:00:15;-1.90;99.90
76936;DHT22;65881;52.438;16.744;2024-03-08T00:02:45;-1.90;99.90
76936;DHT22;65881;52.438;16.744;2024-03-08T00:05:11;-1.90;99.90
76936;DHT22;65881;52.438;16.744;2024-03-08T00:07:40;-2.00;99.90
76936;DHT22;65881;52.438;16.744;2024-03-08T00:10:07;-2.00;99.90
76936;DHT22;65881;52.438;16.744;2024-03-08T00:12:55;-2.10;99.90
76936;DHT22;65881;52.438;16.744;2024-03-08T00:15:20;-2.10;99.90
76936;DHT22;65881;52.438;16.744;2024-03-08T00:17:49;-2.10;99.90
76936;DHT22;65881;52.438;16.744;2024-03-08T00:20:15;-2.10;99.90
76936;DHT22;65881;52.438;16.744;2024-03-08T00:22:44;-2.10;99.90
76936;DHT22;65881;52.438;16.744;2024-03-08T00:25:09;-2.20;99.90
76936;DHT22;65881;52.438;16.744;2024-03-08T00:27:35;-2.20;99.90
76936;DHT22;65881;52.438;16.744;2024-03-08T00:30:01;-2.20;99.90
76936;DHT22;65881;52.438;16.744;2024-03-08T00:32:27;-2.20;99.90
76936;DHT22;65881;52.438;16.744;2024-03-08T00:34:53;-2.20;99.90
76936;DHT22;65881;52.438;16.744;2024-03-08T00:37:20;-2.20;99.90
76936;DHT22;65881;52.438;16.744;2024-03-08T00:39:47;-2.30;99.90
76936;DHT22;65881;52.438;16.744;2024-03-08T00:42:13;-2.30;99.90
76936;DHT22;65881;52.438;16.744;2024-03-08T00:44:39;-2.30;99.90
76936;DHT22;65881;52.438;16.744;2024-03-08T00:47:05;-2.30;99.90
76936;DHT22;65881;52.438;16.744;2024-03-08T00:49:31;-2.30;99.90
76936;DHT22;65881;52.438;16.744;2024-03-08T00:51:56;-2.30;99.90
76936;DHT22;65881;52.438;16.744;2024-03-08T00:54:22;-2.30;99.90
76936;DHT22;65881;52.438;16.744;2024-03-08T00:56:47;-2.40;99.90
76936;DHT22;65881;52.438;16.744;2024-03-08T00:59:13;-2.30;99.90
76936;DHT22;65881;52.438;16.744;2024-03-08T01:01:40;-2.30;99.90
76936;DHT22;65881;52.438;16.744;2024-03-08T01:04:05;-2.40;99.90
76936;DHT22;65881;52.438;16.744;2024-03-08T01:06:31;-2.40;99.90
76936;DHT22;65881;52.438;16.744;2024-03-08T01:08:57;-2.40;99.90
76936;DHT22;65881;52.438;16.744;2024-03-08T01:11:22;-2.40;99.90
76936;DHT22;65881;52.438;16.744;2024-03-08T01:13:48;-2.40;99.90
76936;DHT22;65881;52.438;16.744;2024-03-08T01:16:15;-2.50;99.90
76936;DHT22;65881;52.438;16.744;2024-03-08T01:18:42;-2.40;99.90
76936;DHT22;65881;52.438;16.744;2024-03-08T01:21:08;-2.50;99.90
76936;DHT22;65881;52.438;16.744;2024-03-08T01:23:34;-2.50;99.90
76936;DHT22;65881;52.438;16.744;2024-03-08T01:26:00;-2.50;99.90
76936;DHT22;65881;52.438;16.744;2024-03-08T01:28:30;-2.50;99.90
76936;DHT22;65881;52.438;16.744;2024-03-08T01:30:55;-2.60;99.90
76936;DHT22;65881;52.438;16.744;2024-03-08T01:33:25;-2.60;99.90
76936;DHT22;65881;52.438;16.744;2024-03-08T01:35:52;-2.60;99.90
76936;DHT22;65881;52.438;16.744;2024-03-08T01:38:18;-2.60;99.90
76936;DHT22;65881;52.438;16.744;2024-03-08T01:40:44;-2.60;99.90
76936;DHT22;65881;52.438;16.744;2024-03-08T01:43:36;-2.60;99.90
76936;DHT22;65881;52.438;16.744;2024-03-08T01:46:01;-2.60;99.90
76936;DHT22;65881;52.438;16.744;2024-03-08T01:48:28;-2.60;99.90
76936;DHT22;65881;52.438;16.744;2024-03-08T01:50:56;-2.70;99.90
76936;DHT22;65881;52.438;16.744;2024-03-08T01:53:24;-2.70;99.90
76936;DHT22;65881;52.438;16.744;2024-03-08T01:55:50;-2.70;99.90
76936;DHT22;65881;52.438;16.744;2024-03-08T01:58:17;-2.70;99.90
76936;DHT22;65881;52.438;16.744;2024-03-08T02:00:48;-2.70;99.90
76936;DHT22;65881;52.438;16.744;2024-03-08T02:03:17;-2.70;99.90
76936;DHT22;65881;52.438;16.744;2024-03-08T02:05:42;-2.70;99.90
76936;DHT22;65881;52.438;16.744;2024-03-08T02:08:11;-2.80;99.90
76936;DHT22;65881;52.438;16.744;2024-03-08T02:10:41;-2.80;99.90
76936;DHT22;65881;52.438;16.744;2024-03-08T02:13:10;-2.80;99.90
76936;DHT22;65881;52.438;16.744;2024-03-08T02:18:18;-2.80;99.90
76936;DHT22;65881;52.438;16.744;2024-03-08T02:20:45;-2.80;99.90
76936;DHT22;65881;52.438;16.744;2024-03-08T02:23:13;-2.80;99.90
76936;DHT22;65881;52.438;16.744;2024-03-08T02:25:39;-2.90;99.90
76936;DHT22;65881;52.438;16.744;2024-03-08T02:28:05;-2.90;99.90
76936;DHT22;65881;52.438;16.744;2024-03-08T02:30:30;-2.90;99.90
76936;DHT22;65881;52.438;16.744;2024-03-08T02:32:56;-2.90;99.90
76936;DHT22;65881;52.438;16.744;2024-03-08T02:35:21;-2.90;99.90
76936;DHT22;65881;52.438;16.744;2024-03-08T02:37:47;-2.90;99.90
76936;DHT22;65881;52.438;16.744;2024-03-08T02:40:13;-3.00;99.90
76936;DHT22;65881;52.438;16.744;2024-03-08T02:42:39;-3.00;99.90
76936;DHT22;65881;52.438;16.744;2024-03-08T02:45:05;-3.00;99.90
76936;DHT22;65881;52.438;16.744;2024-03-08T02:47:31;-3.00;99.90
76936;DHT22;65881;52.438;16.744;2024-03-08T02:49:57;-3.00;99.90
76936;DHT22;65881;52.438;16.744;2024-03-08T02:52:22;-3.00;99.90
76936;DHT22;65881;52.438;16.744;2024-03-08T02:54:48;-3.00;99.90
76936;DHT22;65881;52.438;16.744;2024-03-08T02:57:14;-3.00;99.90
76936;DHT22;65881;52.438;16.744;2024-03-08T02:59:40;-3.00;99.90
76936;DHT22;65881;52.438;16.744;2024-03-08T03:02:06;-3.00;99.90
76936;DHT22;65881;52.438;16.744;2024-03-08T03:04:32;-3.00;99.90
76936;DHT22;65881;52.438;16.744;2024-03-08T03:07:00;-3.00;99.90
76936;DHT22;65881;52.438;16.744;2024-03-08T03:09:26;-3.00;99.90
76936;DHT22;65881;52.438;16.744;2024-03-08T03:11:53;-3.00;99.90
76936;DHT22;65881;52.438;16.744;2024-03-08T03:14:21;-3.10;99.90
76936;DHT22;65881;52.438;16.744;2024-03-08T03:16:46;-3.10;99.90
76936;DHT22;65881;52.438;16.744;2024-03-08T03:19:12;-3.10;99.90
76936;DHT22;65881;52.438;16.744;2024-03-08T03:21:37;-3.10;99.90
76936;DHT22;65881;52.438;16.744;2024-03-08T03:24:04;-3.10;99.90
76936;DHT22;65881;52.438;16.744;2024-03-08T03:26:36;-3.10;99.90
76936;DHT22;65881;52.438;16.744;2024-03-08T03:29:07;-3.10;99.90
76936;DHT22;65881;52.438;16.744;2024-03-08T03:31:34;-3.10;99.90
76936;DHT22;65881;52.438;16.744;2024-03-08T03:34:00;-3.10;99.90
76936;DHT22;65881;52.438;16.744;2024-03-08T03:36:29;-3.10;99.90
76936;DHT22;65881;52.438;16.744;2024-03-08T03:38:56;-3.10;99.90
76936;DHT22;65881;52.438;16.744;2024-03-08T03:41:36;-3.20;99.90
76936;DHT22;65881;52.438;16.744;2024-03-08T03:44:01;-3.20;99.90
76936;DHT22;65881;52.438;16.744;2024-03-08T03:46:27;-3.20;99.90
76936;DHT22;65881;52.438;16.744;2024-03-08T03:48:54;-3.20;99.90
76936;DHT22;65881;52.438;16.744;2024-03-08T03:51:20;-3.20;99.90
76936;DHT22;65881;52.438;16.744;2024-03-08T03:53:46;-3.20;99.90
76936;DHT22;65881;52.438;16.744;2024-03-08T03:56:12;-3.20;99.90
76936;DHT22;65881;52.438;16.744;2024-03-08T03:58:38;-3.30;99.90
76936;DHT22;65881;52.438;16.744;2024-03-08T04:01:05;-3.20;99.90
76936;DHT22;65881;52.438;16.744;2024-03-08T04:03:30;-3.30;99.90
76936;DHT22;65881;52.438;16.744;2024-03-08T04:05:56;-3.40;99.90
76936;DHT22;65881;52.438;16.744;2024-03-08T04:08:23;-3.40;99.90
76936;DHT22;65881;52.438;16.744;2024-03-08T04:10:50;-3.40;99.90
76936;DHT22;65881;52.438;16.744;2024-03-08T04:13:16;-3.40;99.90
76936;DHT22;65881;52.438;16.744;2024-03-08T04:15:41;-3.40;99.90
76936;DHT22;65881;52.438;16.744;2024-03-08T04:18:09;-3.40;99.90
76936;DHT22;65881;52.438;16.744;2024-03-08T04:20:35;-3.50;99.90
76936;DHT22;65881;52.438;16.744;2024-03-08T04:23:01;-3.40;99.90
76936;DHT22;65881;52.438;16.744;2024-03-08T04:25:27;-3.50;99.90
76936;DHT22;65881;52.438;16.744;2024-03-08T04:27:54;-3.50;99.90
76936;DHT22;65881;52.438;16.744;2024-03-08T04:30:19;-3.50;99.90
76936;DHT22;65881;52.438;16.744;2024-03-08T04:32:46;-3.60;99.90
76936;DHT22;65881;52.438;16.744;2024-03-08T04:35:13;-3.60;99.90
76936;DHT22;65881;52.438;16.744;2024-03-08T04:37:40;-3.60;99.90
76936;DHT22;65881;52.438;16.744;2024-03-08T04:40:06;-3.60;99.90
76936;DHT22;65881;52.438;16.744;2024-03-08T04:42:32;-3.60;99.90
76936;DHT22;65881;52.438;16.744;2024-03-08T04:44:59;-3.60;99.90
76936;DHT22;65881;52.438;16.744;2024-03-08T04:47:24;-3.60;99.90
76936;DHT22;65881;52.438;16.744;2024-03-08T04:49:50;-3.60;99.90
76936;DHT22;65881;52.438;16.744;2024-03-08T04:52:16;-3.60;99.90
76936;DHT22;65881;52.438;16.744;2024-03-08T04:54:42;-3.60;99.90
76936;DHT22;65881;52.438;16.744;2024-03-08T04:57:08;-3.60;99.90
76936;DHT22;65881;52.438;16.744;2024-03-08T04:59:33;-3.60;99.90
76936;DHT22;65881;52.438;16.744;2024-03-08T05:01:59;-3.60;99.90
76936;DHT22;65881;52.438;16.744;2024-03-08T05:04:24;-3.60;99.90
76936;DHT22;65881;52.438;16.744;2024-03-08T05:06:50;-3.60;99.90
76936;DHT22;65881;52.438;16.744;2024-03-08T05:09:15;-3.60;99.90
76936;DHT22;65881;52.438;16.744;2024-03-08T05:11:42;-3.60;99.90
76936;DHT22;65881;52.438;16.744;2024-03-08T05:14:09;-3.60;99.90
76936;DHT22;65881;52.438;16.744;2024-03-08T05:16:35;-3.60;99.90
76936;DHT22;65881;52.438;16.744;2024-03-08T05:19:01;-3.70;99.90
76936;DHT22;65881;52.438;16.744;2024-03-08T05:21:27;-3.70;99.90
76936;DHT22;65881;52.438;16.744;2024-03-08T05:23:55;-3.80;99.90
76936;DHT22;65881;52.438;16.744;2024-03-08T05:26:20;-3.80;99.90
76936;DHT22;65881;52.438;16.744;2024-03-08T05:28:47;-3.80;99.90
76936;DHT22;65881;52.438;16.744;2024-03-08T05:31:20;-3.80;99.90
76936;DHT22;65881;52.438;16.744;2024-03-08T05:33:48;-3.80;99.90
76936;DHT22;65881;52.438;16.744;2024-03-08T05:36:16;-3.80;99.90
76936;DHT22;65881;52.438;16.744;2024-03-08T05:38:43;-3.80;99.90
76936;DHT22;65881;52.438;16.744;2024-03-08T05:41:09;-3.80;99.90
76936;DHT22;65881;52.438;16.744;2024-03-08T05:43:35;-3.80;99.90
76936;DHT22;65881;52.438;16.744;2024-03-08T05:46:00;-3.80;99.90
76936;DHT22;65881;52.438;16.744;2024-03-08T05:48:26;-3.70;99.90
76936;DHT22;65881;52.438;16.744;2024-03-08T05:50:51;-3.60;99.90
76936;DHT22;65881;52.438;16.744;2024-03-08T05:53:17;-3.60;99.90
76936;DHT22;65881;52.438;16.744;2024-03-08T05:55:42;-3.60;99.90
76936;DHT22;65881;52.438;16.744;2024-03-08T05:58:10;-3.50;99.90
76936;DHT22;65881;52.438;16.744;2024-03-08T06:00:36;-3.50;99.90
76936;DHT22;65881;52.438;16.744;2024-03-08T06:03:02;-3.40;99.90
76936;DHT22;65881;52.438;16.744;2024-03-08T06:05:30;-3.40;99.90
76936;DHT22;65881;52.438;16.744;2024-03-08T06:07:55;-3.30;99.90
76936;DHT22;65881;52.438;16.744;2024-03-08T06:10:21;-3.20;99.90
76936;DHT22;65881;52.438;16.744;2024-03-08T06:12:48;-3.20;99.90
76936;DHT22;65881;52.438;16.744;2024-03-08T06:15:14;-3.20;99.90
76936;DHT22;65881;52.438;16.744;2024-03-08T06:17:42;-3.10;99.90
76936;DHT22;65881;52.438;16.744;2024-03-08T06:20:08;-3.10;99.90
76936;DHT22;65881;52.438;16.744;2024-03-08T06:22:38;-3.10;99.90
76936;DHT22;65881;52.438;16.744;2024-03-08T06:25:10;-3.00;99.90
76936;DHT22;65881;52.438;16.744;2024-03-08T06:27:42;-2.90;99.90
76936;DHT22;65881;52.438;16.744;2024-03-08T06:30:09;-2.70;99.90
76936;DHT22;65881;52.438;16.744;2024-03-08T06:32:44;-2.30;99.90
76936;DHT22;65881;52.438;16.744;2024-03-08T06:35:10;-1.80;99.90
76936;DHT22;65881;52.438;16.744;2024-03-08T06:37:36;-1.70;99.90
76936;DHT22;65881;52.438;16.744;2024-03-08T06:40:02;-1.50;99.90
76936;DHT22;65881;52.438;16.744;2024-03-08T06:42:33;-1.40;99.90
76936;DHT22;65881;52.438;16.744;2024-03-08T06:45:00;-1.40;99.90
76936;DHT22;65881;52.438;16.744;2024-03-08T06:47:30;-1.50;99.90
76936;DHT22;65881;52.438;16.744;2024-03-08T06:49:59;-1.50;99.90
76936;DHT22;65881;52.438;16.744;2024-03-08T06:52:24;-1.50;99.90
76936;DHT22;65881;52.438;16.744;2024-03-08T06:54:50;-1.50;99.90
76936;DHT22;65881;52.438;16.744;2024-03-08T06:57:18;-1.50;99.90
76936;DHT22;65881;52.438;16.744;2024-03-08T06:59:43;-1.50;99.90
76936;DHT22;65881;52.438;16.744;2024-03-08T07:02:10;-1.30;99.90
76936;DHT22;65881;52.438;16.744;2024-03-08T07:04:35;-1.20;99.90
76936;DHT22;65881;52.438;16.744;2024-03-08T07:07:04;-1.10;99.90
76936;DHT22;65881;52.438;16.744;2024-03-08T07:09:29;-1.10;99.90
76936;DHT22;65881;52.438;16.744;2024-03-08T07:11:55;-0.90;99.90
76936;DHT22;65881;52.438;16.744;2024-03-08T07:14:22;-0.90;99.90
76936;DHT22;65881;52.438;16.744;2024-03-08T07:16:48;-0.80;99.90
76936;DHT22;65881;52.438;16.744;2024-03-08T07:19:13;-0.70;99.90
76936;DHT22;65881;52.438;16.744;2024-03-08T07:21:39;-0.60;99.90
76936;DHT22;65881;52.438;16.744;2024-03-08T07:24:05;-0.50;99.90
76936;DHT22;65881;52.438;16.744;2024-03-08T07:26:45;-0.30;99.90
76936;DHT22;65881;52.438;16.744;2024-03-08T07:29:18;-0.10;99.90
76936;DHT22;65881;52.438;16.744;2024-03-08T07:31:43;0.00;99.90
76936;DHT22;65881;52.438;16.744;2024-03-08T07:34:27;0.30;99.90
76936;DHT22;65881;52.438;16.744;2024-03-08T07:36:57;0.40;99.90
76936;DHT22;65881;52.438;16.744;2024-03-08T07:39:23;0.40;99.90
76936;DHT22;65881;52.438;16.744;2024-03-08T07:41:49;0.50;99.90
76936;DHT22;65881;52.438;16.744;2024-03-08T07:44:14;0.60;99.90
76936;DHT22;65881;52.438;16.744;2024-03-08T07:46:40;0.80;99.90
76936;DHT22;65881;52.438;16.744;2024-03-08T07:49:06;0.90;99.90
76936;DHT22;65881;52.438;16.744;2024-03-08T07:51:32;0.80;99.90
76936;DHT22;65881;52.438;16.744;2024-03-08T07:54:00;0.80;99.90
76936;DHT22;65881;52.438;16.744;2024-03-08T07:56:25;1.10;99.90
76936;DHT22;65881;52.438;16.744;2024-03-08T07:58:51;1.40;99.90
76936;DHT22;65881;52.438;16.744;2024-03-08T08:01:17;1.50;99.90
76936;DHT22;65881;52.438;16.744;2024-03-08T08:03:43;1.60;99.90
76936;DHT22;65881;52.438;16.744;2024-03-08T08:06:08;1.90;99.90
76936;DHT22;65881;52.438;16.744;2024-03-08T08:08:35;2.10;99.90
76936;DHT22;65881;52.438;16.744;2024-03-08T08:11:00;2.30;99.90
76936;DHT22;65881;52.438;16.744;2024-03-08T08:13:27;2.30;99.90
76936;DHT22;65881;52.438;16.744;2024-03-08T08:15:57;2.40;99.90
76936;DHT22;65881;52.438;16.744;2024-03-08T08:18:23;2.40;99.90
76936;DHT22;65881;52.438;16.744;2024-03-08T08:20:51;2.40;99.90
76936;DHT22;65881;52.438;16.744;2024-03-08T08:23:19;2.50;99.90
76936;DHT22;65881;52.438;16.744;2024-03-08T08:25:46;2.70;99.90
76936;DHT22;65881;52.438;16.744;2024-03-08T08:28:11;2.90;99.90
76936;DHT22;65881;52.438;16.744;2024-03-08T08:30:38;2.90;99.90
76936;DHT22;65881;52.438;16.744;2024-03-08T08:33:03;3.10;99.90
76936;DHT22;65881;52.438;16.744;2024-03-08T08:35:32;3.30;99.90
76936;DHT22;65881;52.438;16.744;2024-03-08T08:37:58;3.40;99.90
76936;DHT22;65881;52.438;16.744;2024-03-08T08:40:24;3.50;99.90
76936;DHT22;65881;52.438;16.744;2024-03-08T08:42:53;3.70;99.90
76936;DHT22;65881;52.438;16.744;2024-03-08T08:45:22;3.90;99.90
76936;DHT22;65881;52.438;16.744;2024-03-08T08:47:52;4.00;99.90
76936;DHT22;65881;52.438;16.744;2024-03-08T08:50:22;4.30;99.90
76936;DHT22;65881;52.438;16.744;2024-03-08T08:52:52;4.70;99.90
76936;DHT22;65881;52.438;16.744;2024-03-08T08:55:18;5.10;99.90
76936;DHT22;65881;52.438;16.744;2024-03-08T08:57:52;5.40;99.90
76936;DHT22;65881;52.438;16.744;2024-03-08T09:00:21;5.70;99.90
76936;DHT22;65881;52.438;16.744;2024-03-08T09:02:49;6.20;88.70
76936;DHT22;65881;52.438;16.744;2024-03-08T09:05:16;6.50;85.70
76936;DHT22;65881;52.438;16.744;2024-03-08T09:07:45;6.80;83.10
76936;DHT22;65881;52.438;16.744;2024-03-08T09:10:10;7.00;81.50
76936;DHT22;65881;52.438;16.744;2024-03-08T09:12:40;6.90;80.10
76936;DHT22;65881;52.438;16.744;2024-03-08T09:15:06;7.00;75.60
76936;DHT22;65881;52.438;16.744;2024-03-08T09:17:36;7.00;74.60
76936;DHT22;65881;52.438;16.744;2024-03-08T09:20:06;7.00;73.00
76936;DHT22;65881;52.438;16.744;2024-03-08T09:22:32;7.00;72.80
76936;DHT22;65881;52.438;16.744;2024-03-08T09:24:57;7.00;73.60
76936;DHT22;65881;52.438;16.744;2024-03-08T09:27:23;6.50;72.30
76936;DHT22;65881;52.438;16.744;2024-03-08T09:29:51;6.70;69.80
76936;DHT22;65881;52.438;16.744;2024-03-08T09:32:17;6.80;69.80
76936;DHT22;65881;52.438;16.744;2024-03-08T09:34:57;6.70;69.30
76936;DHT22;65881;52.438;16.744;2024-03-08T09:37:22;6.50;69.40
76936;DHT22;65881;52.438;16.744;2024-03-08T09:39:51;6.70;71.90
76936;DHT22;65881;52.438;16.744;2024-03-08T09:42:17;6.90;74.00
76936;DHT22;65881;52.438;16.744;2024-03-08T09:44:46;6.80;70.70
76936;DHT22;65881;52.438;16.744;2024-03-08T09:47:15;7.00;71.40
76936;DHT22;65881;52.438;16.744;2024-03-08T09:49:41;7.10;68.20
76936;DHT22;65881;52.438;16.744;2024-03-08T09:52:09;7.00;70.00
76936;DHT22;65881;52.438;16.744;2024-03-08T09:54:35;7.20;70.30
76936;DHT22;65881;52.438;16.744;2024-03-08T09:57:03;7.50;67.30
76936;DHT22;65881;52.438;16.744;2024-03-08T09:59:29;7.40;67.60
76936;DHT22;65881;52.438;16.744;2024-03-08T10:02:01;7.50;68.70
76936;DHT22;65881;52.438;16.744;2024-03-08T10:04:28;7.50;67.30
76936;DHT22;65881;52.438;16.744;2024-03-08T10:07:16;7.30;66.40
76936;DHT22;65881;52.438;16.744;2024-03-08T10:09:41;7.50;65.60
76936;DHT22;65881;52.438;16.744;2024-03-08T10:12:12;7.60;65.50
76936;DHT22;65881;52.438;16.744;2024-03-08T10:14:41;7.60;65.80
76936;DHT22;65881;52.438;16.744;2024-03-08T10:17:13;7.60;64.80
76936;DHT22;65881;52.438;16.744;2024-03-08T10:19:53;7.80;64.50
76936;DHT22;65881;52.438;16.744;2024-03-08T10:22:34;8.00;63.10
76936;DHT22;65881;52.438;16.744;2024-03-08T10:25:00;8.00;64.40
76936;DHT22;65881;52.438;16.744;2024-03-08T10:27:29;8.00;64.10
76936;DHT22;65881;52.438;16.744;2024-03-08T10:30:05;8.30;63.50
76936;DHT22;65881;52.438;16.744;2024-03-08T10:32:31;8.00;62.20
76936;DHT22;65881;52.438;16.744;2024-03-08T10:35:03;8.20;61.30
76936;DHT22;65881;52.438;16.744;2024-03-08T10:37:50;8.40;61.20
76936;DHT22;65881;52.438;16.744;2024-03-08T10:40:28;8.20;60.80
76936;DHT22;65881;52.438;16.744;2024-03-08T10:42:58;8.20;62.00
76936;DHT22;65881;52.438;16.744;2024-03-08T10:45:37;8.60;60.90
76936;DHT22;65881;52.438;16.744;2024-03-08T10:48:28;8.50;58.90
76936;DHT22;65881;52.438;16.744;2024-03-08T10:50:57;8.50;60.00
76936;DHT22;65881;52.438;16.744;2024-03-08T10:53:24;8.00;59.20
76936;DHT22;65881;52.438;16.744;2024-03-08T10:55:53;8.10;61.10
76936;DHT22;65881;52.438;16.744;2024-03-08T10:58:34;8.40;58.40
76936;DHT22;65881;52.438;16.744;2024-03-08T11:01:00;7.60;60.20
76936;DHT22;65881;52.438;16.744;2024-03-08T11:06:18;7.80;59.00
76936;DHT22;65881;52.438;16.744;2024-03-08T11:08:48;8.20;59.50
76936;DHT22;65881;52.438;16.744;2024-03-08T11:11:25;8.10;57.80
76936;DHT22;65881;52.438;16.744;2024-03-08T11:13:55;8.30;59.10
76936;DHT22;65881;52.438;16.744;2024-03-08T11:19:00;8.20;58.80
76936;DHT22;65881;52.438;16.744;2024-03-08T11:21:30;8.40;57.80
76936;DHT22;65881;52.438;16.744;2024-03-08T11:26:29;8.60;57.60
76936;DHT22;65881;52.438;16.744;2024-03-08T11:32:15;8.50;57.40
76936;DHT22;65881;52.438;16.744;2024-03-08T11:34:47;8.40;57.10
76936;DHT22;65881;52.438;16.744;2024-03-08T11:37:13;8.60;58.30
76936;DHT22;65881;52.438;16.744;2024-03-08T11:39:41;8.20;58.90
76936;DHT22;65881;52.438;16.744;2024-03-08T11:42:11;8.60;57.90
76936;DHT22;65881;52.438;16.744;2024-03-08T11:44:37;8.70;56.80
76936;DHT22;65881;52.438;16.744;2024-03-08T11:47:07;8.90;56.30
76936;DHT22;65881;52.438;16.744;2024-03-08T11:49:33;8.70;57.20
76936;DHT22;65881;52.438;16.744;2024-03-08T11:51:58;9.00;58.10
76936;DHT22;65881;52.438;16.744;2024-03-08T11:54:24;9.20;57.30
76936;DHT22;65881;52.438;16.744;2024-03-08T11:57:06;8.70;57.50
76936;DHT22;65881;52.438;16.744;2024-03-08T11:59:32;8.60;57.40
76936;DHT22;65881;52.438;16.744;2024-03-08T12:02:03;8.40;57.80
76936;DHT22;65881;52.438;16.744;2024-03-08T12:04:29;8.20;58.10
76936;DHT22;65881;52.438;16.744;2024-03-08T12:06:54;8.50;57.20
76936;DHT22;65881;52.438;16.744;2024-03-08T12:09:20;8.90;58.40
76936;DHT22;65881;52.438;16.744;2024-03-08T12:11:48;9.30;55.20
76936;DHT22;65881;52.438;16.744;2024-03-08T12:14:15;9.00;55.80
76936;DHT22;65881;52.438;16.744;2024-03-08T12:16:43;8.80;57.10
76936;DHT22;65881;52.438;16.744;2024-03-08T12:19:10;9.00;55.30
76936;DHT22;65881;52.438;16.744;2024-03-08T12:21:36;9.00;55.90
76936;DHT22;65881;52.438;16.744;2024-03-08T12:24:09;9.00;55.80
76936;DHT22;65881;52.438;16.744;2024-03-08T12:26:39;9.00;55.10
76936;DHT22;65881;52.438;16.744;2024-03-08T12:29:24;9.30;55.20
76936;DHT22;65881;52.438;16.744;2024-03-08T12:31:58;9.40;55.40
76936;DHT22;65881;52.438;16.744;2024-03-08T12:34:28;9.50;55.10
76936;DHT22;65881;52.438;16.744;2024-03-08T12:36:54;9.00;56.40
76936;DHT22;65881;52.438;16.744;2024-03-08T12:39:22;8.90;55.30
76936;DHT22;65881;52.438;16.744;2024-03-08T12:41:51;8.90;55.40
76936;DHT22;65881;52.438;16.744;2024-03-08T12:44:17;8.80;57.10
76936;DHT22;65881;52.438;16.744;2024-03-08T12:46:44;9.00;56.40
76936;DHT22;65881;52.438;16.744;2024-03-08T12:49:22;8.70;56.00
76936;DHT22;65881;52.438;16.744;2024-03-08T12:51:48;8.30;55.90
76936;DHT22;65881;52.438;16.744;2024-03-08T12:54:20;8.60;56.40
76936;DHT22;65881;52.438;16.744;2024-03-08T12:56:52;8.40;55.20
76936;DHT22;65881;52.438;16.744;2024-03-08T12:59:34;8.00;56.40
76936;DHT22;65881;52.438;16.744;2024-03-08T13:02:06;8.40;57.00
76936;DHT22;65881;52.438;16.744;2024-03-08T13:04:36;8.60;57.10
76936;DHT22;65881;52.438;16.744;2024-03-08T13:07:04;8.90;56.10
76936;DHT22;65881;52.438;16.744;2024-03-08T13:09:31;9.00;54.10
76936;DHT22;65881;52.438;16.744;2024-03-08T13:11:57;9.10;54.10
76936;DHT22;65881;52.438;16.744;2024-03-08T13:14:24;9.00;54.40
76936;DHT22;65881;52.438;16.744;2024-03-08T13:16:49;9.00;54.10
76936;DHT22;65881;52.438;16.744;2024-03-08T13:19:16;8.50;54.60
76936;DHT22;65881;52.438;16.744;2024-03-08T13:21:42;8.40;54.00
76936;DHT22;65881;52.438;16.744;2024-03-08T13:24:08;8.20;57.10
76936;DHT22;65881;52.438;16.744;2024-03-08T13:26:34;8.30;55.10
76936;DHT22;65881;52.438;16.744;2024-03-08T13:28:59;8.20;55.40
76936;DHT22;65881;52.438;16.744;2024-03-08T13:31:28;7.80;55.50
76936;DHT22;65881;52.438;16.744;2024-03-08T13:34:05;8.00;57.30
76936;DHT22;65881;52.438;16.744;2024-03-08T13:36:31;8.00;54.90
76936;DHT22;65881;52.438;16.744;2024-03-08T13:39:07;8.10;54.70
76936;DHT22;65881;52.438;16.744;2024-03-08T13:42:01;8.00;56.00
76936;DHT22;65881;52.438;16.744;2024-03-08T13:44:46;7.90;56.20
76936;DHT22;65881;52.438;16.744;2024-03-08T13:47:13;7.80;56.00
76936;DHT22;65881;52.438;16.744;2024-03-08T13:49:39;7.80;55.30
76936;DHT22;65881;52.438;16.744;2024-03-08T13:52:05;7.90;55.90
76936;DHT22;65881;52.438;16.744;2024-03-08T13:54:31;8.00;56.80
76936;DHT22;65881;52.438;16.744;2024-03-08T13:56:57;7.80;56.00
76936;DHT22;65881;52.438;16.744;2024-03-08T13:59:23;7.80;56.50
76936;DHT22;65881;52.438;16.744;2024-03-08T14:01:49;7.60;55.80
76936;DHT22;65881;52.438;16.744;2024-03-08T14:04:16;7.80;56.70
76936;DHT22;65881;52.438;16.744;2024-03-08T14:06:44;7.80;57.20
76936;DHT22;65881;52.438;16.744;2024-03-08T14:09:11;8.00;55.70
76936;DHT22;65881;52.438;16.744;2024-03-08T14:11:45;8.00;57.50
76936;DHT22;65881;52.438;16.744;2024-03-08T14:14:11;7.90;55.30
76936;DHT22;65881;52.438;16.744;2024-03-08T14:16:59;8.00;57.00
76936;DHT22;65881;52.438;16.744;2024-03-08T14:19:30;7.90;57.70
76936;DHT22;65881;52.438;16.744;2024-03-08T14:22:11;7.80;59.00
76936;DHT22;65881;52.438;16.744;2024-03-08T14:24:41;7.80;58.50
76936;DHT22;65881;52.438;16.744;2024-03-08T14:27:10;7.60;59.80
76936;DHT22;65881;52.438;16.744;2024-03-08T14:29:37;7.60;60.40
76936;DHT22;65881;52.438;16.744;2024-03-08T14:32:04;7.50;59.30
76936;DHT22;65881;52.438;16.744;2024-03-08T14:34:32;7.80;58.30
76936;DHT22;65881;52.438;16.744;2024-03-08T14:37:00;7.80;57.70
76936;DHT22;65881;52.438;16.744;2024-03-08T14:39:31;7.70;58.20
76936;DHT22;65881;52.438;16.744;2024-03-08T14:41:59;7.40;59.10
76936;DHT22;65881;52.438;16.744;2024-03-08T14:44:25;7.40;59.60
76936;DHT22;65881;52.438;16.744;2024-03-08T14:46:55;7.40;59.80
76936;DHT22;65881;52.438;16.744;2024-03-08T14:49:22;7.50;58.30
76936;DHT22;65881;52.438;16.744;2024-03-08T14:51:55;7.50;58.20
76936;DHT22;65881;52.438;16.744;2024-03-08T14:54:23;7.50;59.00
76936;DHT22;65881;52.438;16.744;2024-03-08T14:56:49;7.50;59.50
76936;DHT22;65881;52.438;16.744;2024-03-08T14:59:21;7.50;59.60
76936;DHT22;65881;52.438;16.744;2024-03-08T15:02:01;7.50;58.90
76936;DHT22;65881;52.438;16.744;2024-03-08T15:04:27;7.40;57.70
76936;DHT22;65881;52.438;16.744;2024-03-08T15:06:52;7.10;57.10
76936;DHT22;65881;52.438;16.744;2024-03-08T15:09:18;7.20;59.30
76936;DHT22;65881;52.438;16.744;2024-03-08T15:11:47;7.20;58.70
76936;DHT22;65881;52.438;16.744;2024-03-08T15:14:15;7.20;58.40
76936;DHT22;65881;52.438;16.744;2024-03-08T15:16:57;7.10;57.90
76936;DHT22;65881;52.438;16.744;2024-03-08T15:19:22;7.00;59.20
76936;DHT22;65881;52.438;16.744;2024-03-08T15:21:59;7.00;58.90
76936;DHT22;65881;52.438;16.744;2024-03-08T15:24:25;7.00;59.40
76936;DHT22;65881;52.438;16.744;2024-03-08T15:26:51;6.90;59.60
76936;DHT22;65881;52.438;16.744;2024-03-08T15:29:20;6.90;58.60
76936;DHT22;65881;52.438;16.744;2024-03-08T15:31:54;6.90;59.40
76936;DHT22;65881;52.438;16.744;2024-03-08T15:34:20;6.90;59.50
76936;DHT22;65881;52.438;16.744;2024-03-08T15:36:52;6.80;59.60
76936;DHT22;65881;52.438;16.744;2024-03-08T15:39:18;6.70;58.50
76936;DHT22;65881;52.438;16.744;2024-03-08T15:41:46;6.70;58.30